createdAt,value
2019-02-07T00:00:21.873Z,3.90
2019-02-07T00:03:25.479Z,3.60
2019-02-07T00:06:29.093Z,4.08
2019-02-07T00:09:32.783Z,3.98
2019-02-07T00:12:36.391Z,3.97
2019-02-07T00:15:39.972Z,3.73
2019-02-07T00:18:44.571Z,3.85
2019-02-07T00:21:48.124Z,4.28
2019-02-07T00:24:51.721Z,3.72
2019-02-07T00:27:55.437Z,4.25
2019-02-07T00:30:59.033Z,4.03
2019-02-07T00:34:03.395Z,3.95
2019-02-07T00:37:06.951Z,4.92
2019-02-07T00:40:12.566Z,3.87
2019-02-07T00:43:17.245Z,4.22
2019-02-07T00:46:20.862Z,4.37
2019-02-07T00:49:24.443Z,4.55
2019-02-07T00:52:28.020Z,4.23
2019-02-07T00:55:31.647Z,3.92
2019-02-07T00:58:35.356Z,4.50
2019-02-07T01:01:39.449Z,4.08
2019-02-07T01:04:43.058Z,4.12
2019-02-07T01:07:46.652Z,4.47
2019-02-07T01:10:50.841Z,3.75
2019-02-07T01:13:54.409Z,4.17
2019-02-07T01:16:57.997Z,4.20
2019-02-07T01:20:02.958Z,4.10
2019-02-07T01:23:06.517Z,4.35
2019-02-07T01:26:10.142Z,4.37
2019-02-07T01:29:13.848Z,4.53
2019-02-07T01:32:17.435Z,4.47
2019-02-07T01:35:23.115Z,4.62
2019-02-07T01:38:28.218Z,3.95
2019-02-07T01:41:31.835Z,4.25
2019-02-07T01:44:35.459Z,4.15
2019-02-07T01:47:39.535Z,4.17
2019-02-07T01:50:44.282Z,4.30
2019-02-07T01:53:47.876Z,4.90
2019-02-07T01:56:51.871Z,4.70
2019-02-07T01:59:55.584Z,4.37
2019-02-07T02:02:59.301Z,3.98
2019-02-07T02:06:03.207Z,4.10
2019-02-07T02:09:08.147Z,4.42
2019-02-07T02:12:11.829Z,4.22
2019-02-07T02:15:24.112Z,4.60
2019-02-07T02:18:24.391Z,4.42
2019-02-07T02:21:28.055Z,4.35
2019-02-07T02:24:31.801Z,4.60
2019-02-07T02:27:35.400Z,4.40
2019-02-07T02:30:38.988Z,4.85
2019-02-07T02:33:42.721Z,4.58
2019-02-07T02:36:46.297Z,4.15
2019-02-07T02:39:49.913Z,4.40
2019-02-07T02:42:53.612Z,4.45
2019-02-07T02:45:57.315Z,4.40
2019-02-07T02:49:00.931Z,5.20
2019-02-07T02:52:04.793Z,4.05
2019-02-07T02:55:09.623Z,5.00
2019-02-07T02:58:13.271Z,4.65
2019-02-07T03:01:42.590Z,4.42
2019-02-07T03:04:53.803Z,4.30
2019-02-07T03:08:15.357Z,4.62
2019-02-07T03:11:36.807Z,4.40
2019-02-07T03:14:58.423Z,4.47
2019-02-07T03:18:18.248Z,4.35
2019-02-07T03:21:39.721Z,4.40
2019-02-07T03:25:01.306Z,4.70
2019-02-07T03:28:24.760Z,4.40
2019-02-07T03:31:47.456Z,4.35
2019-02-07T03:35:19.414Z,5.40
2019-02-07T03:38:30.594Z,4.12
2019-02-07T03:42:00.933Z,4.28
2019-02-07T03:45:22.793Z,4.40
2019-02-07T03:48:33.798Z,4.60
2019-02-07T03:51:55.430Z,4.12
2019-02-07T03:55:18.006Z,5.37
2019-02-07T03:58:39.499Z,4.83
2019-02-07T04:01:50.715Z,5.00
2019-02-07T04:05:19.590Z,5.40
2019-02-07T04:08:43.406Z,4.58
2019-02-07T04:12:09.797Z,4.92
2019-02-07T04:15:47.751Z,4.75
2019-02-07T04:19:01.640Z,4.45
2019-02-07T04:22:30.366Z,4.95
2019-02-07T04:26:02.311Z,4.50
2019-02-07T04:29:24.857Z,4.67
2019-02-07T04:32:58.247Z,4.72
2019-02-07T04:36:23.159Z,4.80
2019-02-07T04:39:37.499Z,4.93
2019-02-07T04:42:55.668Z,4.70
2019-02-07T04:46:27.066Z,4.42
2019-02-07T04:49:48.852Z,4.58
2019-02-07T04:53:01.454Z,4.62
2019-02-07T04:56:23.055Z,5.17
2019-02-07T04:59:36.394Z,4.95
2019-02-07T05:02:58.057Z,4.87
2019-02-07T05:06:24.469Z,4.45
2019-02-07T05:09:45.781Z,4.33
2019-02-07T05:13:14.412Z,5.13
2019-02-07T05:16:39.701Z,5.05
2019-02-07T05:20:06.316Z,4.55
2019-02-07T05:23:27.824Z,4.70
2019-02-07T05:26:50.459Z,4.85
2019-02-07T05:30:05.572Z,4.92
2019-02-07T05:33:41.750Z,4.33
2019-02-07T05:37:04.317Z,5.05
2019-02-07T05:40:13.726Z,5.10
2019-02-07T05:43:36.329Z,4.80
2019-02-07T05:47:01.280Z,4.80
2019-02-07T05:50:23.501Z,4.60
2019-02-07T05:53:53.944Z,4.30
2019-02-07T05:57:16.340Z,4.85
2019-02-07T06:00:37.997Z,5.35
2019-02-07T06:03:48.913Z,4.80
2019-02-07T06:07:10.676Z,5.10
2019-02-07T06:10:32.154Z,5.25
2019-02-07T06:13:59.719Z,5.10
2019-02-07T06:17:21.162Z,4.70
2019-02-07T06:20:41.543Z,5.35
2019-02-07T06:24:08.101Z,5.35
2019-02-07T06:27:39.455Z,5.08
2019-02-07T06:31:00.633Z,5.30
2019-02-07T06:34:28.981Z,5.10
2019-02-07T06:37:52.568Z,4.83
2019-02-07T06:41:14.111Z,5.30
2019-02-07T06:44:35.602Z,4.97
2019-02-07T06:48:04.087Z,4.83
2019-02-07T06:51:26.737Z,5.20
2019-02-07T06:54:53.375Z,5.58
2019-02-07T06:58:26.131Z,5.05
2019-02-07T07:01:51.667Z,5.37
2019-02-07T07:05:18.113Z,5.17
2019-02-07T07:08:39.321Z,5.35
2019-02-07T07:12:05.708Z,4.90
2019-02-07T07:15:17.192Z,5.92
2019-02-07T07:18:39.011Z,5.00
2019-02-07T07:22:11.391Z,4.30
2019-02-07T07:25:33.272Z,5.17
2019-02-07T07:28:56.600Z,5.40
2019-02-07T07:32:17.941Z,5.22
2019-02-07T07:35:39.401Z,5.12
2019-02-07T07:39:02.817Z,5.30
2019-02-07T07:42:24.328Z,5.10
2019-02-07T07:45:38.278Z,5.20
2019-02-07T07:49:06.252Z,5.00
2019-02-07T07:52:47.138Z,5.27
2019-02-07T07:56:06.804Z,5.40
2019-02-07T07:59:28.012Z,5.40
2019-02-07T08:02:46.994Z,5.45
2019-02-07T08:05:57.936Z,5.10
2019-02-07T08:09:19.281Z,5.03
2019-02-07T08:12:37.024Z,5.37
2019-02-07T08:15:59.411Z,6.50
2019-02-07T08:19:22.279Z,5.43
2019-02-07T08:22:43.995Z,6.15
2019-02-07T08:26:14.146Z,5.23
2019-02-07T08:29:42.864Z,5.83
2019-02-07T08:33:17.892Z,5.22
2019-02-07T08:36:46.099Z,5.85
2019-02-07T08:40:21.125Z,5.92
2019-02-07T08:43:36.744Z,6.35
2019-02-07T08:46:58.332Z,5.20
2019-02-07T08:50:24.356Z,5.65
2019-02-07T08:53:46.430Z,5.20
2019-02-07T08:57:02.621Z,5.75
2019-02-07T09:00:26.827Z,5.30
2019-02-07T09:03:48.212Z,6.10
2019-02-07T09:07:09.309Z,5.30
2019-02-07T09:10:33.875Z,5.22
2019-02-07T09:13:47.940Z,5.50
2019-02-07T09:17:14.573Z,5.58
2019-02-07T09:20:35.982Z,5.40
2019-02-07T09:23:51.559Z,5.60
2019-02-07T09:27:23.057Z,5.58
2019-02-07T09:31:01.607Z,5.92
2019-02-07T09:34:29.668Z,5.12
2019-02-07T09:37:50.965Z,5.12
2019-02-07T09:41:12.495Z,5.97
2019-02-07T09:44:26.991Z,5.80
2019-02-07T09:47:45.288Z,5.55
2019-02-07T09:50:57.404Z,6.55
2019-02-07T09:54:19.359Z,5.45
2019-02-07T09:57:39.445Z,6.33
2019-02-07T10:01:01.709Z,5.47
2019-02-07T10:04:33.544Z,5.45
2019-02-07T10:07:54.907Z,7.92
2019-02-07T10:11:16.532Z,5.83
2019-02-07T10:14:27.243Z,5.22
2019-02-07T10:17:52.795Z,5.65
2019-02-07T10:21:03.931Z,5.50
2019-02-07T10:24:25.535Z,5.45
2019-02-07T10:27:54.968Z,6.60
2019-02-07T10:31:16.088Z,6.95
2019-02-07T10:34:27.311Z,5.70
2019-02-07T10:37:39.060Z,6.08
2019-02-07T10:40:54.253Z,6.33
2019-02-07T10:44:21.597Z,6.92
2019-02-07T10:47:42.915Z,6.17
2019-02-07T10:51:01.664Z,5.40
2019-02-07T10:54:25.435Z,5.80
2019-02-07T10:57:49.320Z,6.97
2019-02-07T11:01:10.941Z,7.08
2019-02-07T11:04:34.644Z,6.15
2019-02-07T11:07:50.513Z,5.42
2019-02-07T11:11:04.790Z,6.25
2019-02-07T11:14:32.522Z,5.70
2019-02-07T11:17:47.244Z,7.05
2019-02-07T11:21:03.702Z,5.83
2019-02-07T11:24:22.555Z,7.25
2019-02-07T11:27:47.320Z,6.22
2019-02-07T11:31:10.442Z,5.75
2019-02-07T11:34:33.019Z,6.08
2019-02-07T11:37:54.808Z,5.97
2019-02-07T11:41:17.968Z,6.35
2019-02-07T11:44:39.674Z,6.05
2019-02-07T11:48:01.101Z,6.50
2019-02-07T11:51:17.611Z,6.97
2019-02-07T11:54:43.227Z,5.92
2019-02-07T11:57:59.974Z,8.23
2019-02-07T12:01:32.003Z,6.85
2019-02-07T12:04:50.689Z,6.53
2019-02-07T12:08:22.556Z,6.28
2019-02-07T12:11:59.233Z,5.60
2019-02-07T12:15:39.884Z,8.60
2019-02-07T12:19:17.815Z,8.88
2019-02-07T12:22:30.932Z,5.95
2019-02-07T12:26:00.002Z,6.72
2019-02-07T12:29:21.735Z,7.55
2019-02-07T12:32:37.767Z,7.30
2019-02-07T12:36:13.900Z,7.75
2019-02-07T12:39:24.919Z,7.10
2019-02-07T12:42:37.607Z,6.95
2019-02-07T12:45:59.121Z,9.48
2019-02-07T12:49:29.315Z,6.45
2019-02-07T12:52:53.858Z,6.33
2019-02-07T12:56:24.815Z,6.92
2019-02-07T12:59:59.803Z,6.75
2019-02-07T13:03:28.753Z,6.92
2019-02-07T13:06:57.342Z,6.55
2019-02-07T13:10:20.959Z,6.62
2019-02-07T13:13:36.392Z,7.83
2019-02-07T13:17:01.321Z,6.85
2019-02-07T13:20:28.611Z,6.87
2019-02-07T13:23:49.837Z,6.33
2019-02-07T13:27:12.460Z,6.58
2019-02-07T13:30:32.005Z,8.58
2019-02-07T13:34:04.586Z,7.95
2019-02-07T13:37:21.421Z,10.53
2019-02-07T13:40:38.991Z,6.35
2019-02-07T13:43:55.702Z,6.83
2019-02-07T13:47:24.077Z,6.83
2019-02-07T13:50:45.800Z,7.12
2019-02-07T13:54:09.492Z,7.67
2019-02-07T13:57:33.147Z,7.10
2019-02-07T14:00:44.469Z,6.70
2019-02-07T14:04:19.471Z,7.10
2019-02-07T14:07:48.172Z,6.83
2019-02-07T14:11:16.734Z,6.53
2019-02-07T14:14:33.786Z,7.92
2019-02-07T14:18:03.330Z,7.50
2019-02-07T14:21:26.025Z,7.17
2019-02-07T14:24:39.102Z,6.87
2019-02-07T14:27:56.746Z,6.78
2019-02-07T14:31:09.882Z,7.12
2019-02-07T14:34:26.095Z,6.80
2019-02-07T14:37:51.749Z,6.83
2019-02-07T14:41:07.535Z,6.05
2019-02-07T14:44:33.870Z,7.08
2019-02-07T14:47:37.502Z,7.53
2019-02-07T14:50:42.219Z,6.80
2019-02-07T14:53:46.939Z,7.62
2019-02-07T14:56:50.665Z,6.62
2019-02-07T14:59:54.408Z,9.00
2019-02-07T15:02:58.058Z,8.98
2019-02-07T15:06:01.784Z,7.03
2019-02-07T15:09:12.281Z,7.55
2019-02-07T15:12:15.919Z,6.95
2019-02-07T15:15:20.436Z,8.68
2019-02-07T15:18:24.242Z,8.73
2019-02-07T15:21:28.871Z,9.68
2019-02-07T15:24:33.638Z,9.93
2019-02-07T15:27:37.337Z,6.85
2019-02-07T15:30:41.013Z,10.58
2019-02-07T15:33:45.776Z,7.15
2019-02-07T15:36:50.797Z,7.45
2019-02-07T15:39:54.395Z,9.38
2019-02-07T15:42:58.084Z,8.25
2019-02-07T15:46:01.792Z,6.85
2019-02-07T15:49:05.629Z,7.17
2019-02-07T15:52:09.231Z,6.42
2019-02-07T15:55:13.223Z,6.62
2019-02-07T15:58:18.930Z,10.20
2019-02-07T16:01:50.837Z,10.20
2019-02-07T16:04:57.179Z,8.05
2019-02-07T16:08:01.055Z,6.97
2019-02-07T16:11:04.650Z,11.20
2019-02-07T16:14:08.815Z,8.00
2019-02-07T16:17:12.535Z,8.18
2019-02-07T16:20:17.385Z,10.10
2019-02-07T16:23:21.373Z,10.50
2019-02-07T16:26:24.990Z,9.38
2019-02-07T16:29:28.935Z,6.97
2019-02-07T16:32:32.839Z,9.58
2019-02-07T16:35:38.203Z,7.75
2019-02-07T16:38:42.078Z,7.40
2019-02-07T16:41:46.253Z,6.60
2019-02-07T16:44:50.117Z,8.23
2019-02-07T16:47:53.920Z,6.70
2019-02-07T16:51:00.378Z,6.90
2019-02-07T16:54:03.100Z,7.55
2019-02-07T16:57:06.757Z,6.30
2019-02-07T17:00:16.096Z,7.92
2019-02-07T17:03:19.744Z,6.70
2019-02-07T17:06:23.391Z,6.60
2019-02-07T17:09:30.549Z,7.85
2019-02-07T17:12:34.117Z,6.75
2019-02-07T17:15:37.811Z,6.90
2019-02-07T17:18:41.610Z,8.53
2019-02-07T17:21:45.231Z,6.33
2019-02-07T17:24:48.945Z,6.10
2019-02-07T17:27:52.651Z,8.30
2019-02-07T17:30:56.322Z,7.65
2019-02-07T17:34:00.889Z,9.18
2019-02-07T17:37:04.569Z,5.60
2019-02-07T17:40:11.590Z,6.28
2019-02-07T17:43:17.317Z,7.22
2019-02-07T17:46:21.117Z,6.75
2019-02-07T17:49:24.735Z,7.50
2019-02-07T17:52:29.857Z,6.37
2019-02-07T17:55:33.475Z,6.97
2019-02-07T17:58:37.086Z,7.35
2019-02-07T18:01:40.768Z,5.80
2019-02-07T18:04:44.474Z,6.30
2019-02-07T18:07:48.189Z,6.97
2019-02-07T18:10:51.889Z,6.00
2019-02-07T18:13:55.650Z,6.17
2019-02-07T18:16:59.287Z,7.45
2019-02-07T18:20:04.392Z,6.17
2019-02-07T18:23:07.940Z,6.62
2019-02-07T18:26:11.763Z,6.75
2019-02-07T18:29:15.367Z,5.80
2019-02-07T18:32:19.051Z,6.80
2019-02-07T18:35:22.834Z,5.65
2019-02-07T18:38:26.470Z,9.23
2019-02-07T18:41:30.175Z,6.90
2019-02-07T18:44:33.875Z,7.05
2019-02-07T18:47:38.628Z,7.22
2019-02-07T18:50:42.315Z,5.70
2019-02-07T18:53:46.033Z,5.70
2019-02-07T18:56:49.760Z,6.55
2019-02-07T18:59:53.450Z,8.93
2019-02-07T19:02:57.151Z,8.35
2019-02-07T19:06:00.857Z,6.87
2019-02-07T19:09:08.295Z,9.23
2019-02-07T19:12:11.946Z,7.35
2019-02-07T19:15:24.244Z,6.10
2019-02-07T19:18:27.961Z,8.58
2019-02-07T19:21:31.495Z,7.55
2019-02-07T19:24:35.188Z,6.78
2019-02-07T19:27:38.797Z,6.00
2019-02-07T19:30:42.372Z,7.20
2019-02-07T19:33:46.065Z,6.90
2019-02-07T19:36:49.802Z,5.70
2019-02-07T19:39:55.362Z,5.90
2019-02-07T19:42:58.948Z,7.47
2019-02-07T19:46:02.571Z,6.08
2019-02-07T19:49:06.261Z,6.03
2019-02-07T19:52:10.039Z,6.45
2019-02-07T19:55:15.616Z,5.67
2019-02-07T19:58:19.200Z,6.12
2019-02-07T20:01:23.967Z,6.12
2019-02-07T20:04:28.662Z,6.17
2019-02-07T20:07:32.368Z,5.83
2019-02-07T20:10:36.080Z,5.67
2019-02-07T20:13:39.790Z,6.20
2019-02-07T20:16:44.533Z,5.92
2019-02-07T20:19:48.098Z,5.95
2019-02-07T20:22:51.728Z,6.22
2019-02-07T20:25:55.588Z,6.90
2019-02-07T20:28:59.395Z,6.53
2019-02-07T20:32:03.255Z,6.25
2019-02-07T20:35:07.246Z,6.12
2019-02-07T20:38:11.086Z,5.85
2019-02-07T20:41:14.792Z,5.62
2019-02-07T20:44:18.500Z,5.67
2019-02-07T20:47:22.204Z,6.80
2019-02-07T20:50:26.987Z,6.78
2019-02-07T20:53:32.711Z,5.40
2019-02-07T20:56:36.412Z,5.15
2019-02-07T20:59:40.080Z,5.97
2019-02-07T21:02:43.822Z,6.30
2019-02-07T21:05:47.436Z,6.40
2019-02-07T21:08:52.033Z,7.50
2019-02-07T21:11:55.744Z,6.47
2019-02-07T21:14:59.439Z,6.58
2019-02-07T21:18:03.168Z,5.55
2019-02-07T21:21:06.856Z,5.47
2019-02-07T21:24:10.615Z,6.75
2019-02-07T21:27:16.331Z,6.12
2019-02-07T21:30:25.338Z,6.25
2019-02-07T21:33:28.970Z,6.97
2019-02-07T21:36:32.555Z,5.95
2019-02-07T21:39:36.266Z,5.72
2019-02-07T21:42:40.147Z,6.22
2019-02-07T21:45:43.833Z,5.95
2019-02-07T21:48:47.859Z,6.53
2019-02-07T21:51:52.532Z,6.08
2019-02-07T21:54:56.140Z,6.95
2019-02-07T21:57:59.782Z,6.75
2019-02-07T22:01:03.538Z,5.97
2019-02-07T22:04:08.157Z,7.90
2019-02-07T22:07:11.791Z,7.10
2019-02-07T22:10:16.438Z,6.92
2019-02-07T22:13:20.106Z,6.20
2019-02-07T22:16:23.718Z,6.30
2019-02-07T22:19:27.304Z,6.10
2019-02-07T22:22:30.898Z,6.33
2019-02-07T22:25:34.586Z,6.35
2019-02-07T22:28:38.149Z,6.42
2019-02-07T22:31:41.928Z,7.45
2019-02-07T22:34:45.478Z,6.08
2019-02-07T22:37:50.231Z,6.35
2019-02-07T22:40:53.868Z,6.15
2019-02-07T22:43:57.518Z,6.62
2019-02-07T22:47:01.278Z,6.40
2019-02-07T22:50:08.147Z,6.12
2019-02-07T22:53:11.800Z,6.20
2019-02-07T22:56:15.469Z,6.08
2019-02-07T22:59:19.065Z,5.87
2019-02-07T23:02:22.799Z,6.83
2019-02-07T23:05:26.576Z,6.72
2019-02-07T23:08:30.122Z,6.58
2019-02-07T23:11:33.803Z,6.53
2019-02-07T23:14:37.406Z,6.70
2019-02-07T23:17:41.011Z,6.30
2019-02-07T23:20:44.705Z,6.22
2019-02-07T23:23:48.284Z,6.87
2019-02-07T23:26:51.863Z,6.75
2019-02-07T23:29:55.595Z,7.22
2019-02-07T23:32:59.256Z,6.92
2019-02-07T23:36:02.981Z,6.67
2019-02-07T23:39:09.061Z,6.22
2019-02-07T23:42:13.679Z,6.60
2019-02-07T23:45:17.360Z,6.22
2019-02-07T23:48:21.232Z,6.40
2019-02-07T23:51:24.823Z,5.95
2019-02-07T23:54:28.471Z,6.28
2019-02-07T23:57:32.149Z,6.17
